createdAt,value
2019-01-30T00:02:12.099Z,-0.10
2019-01-30T00:05:00.979Z,0.00
2019-01-30T00:07:49.490Z,0.00
2019-01-30T00:10:38.301Z,-0.10
2019-01-30T00:13:27.150Z,0.00
2019-01-30T00:16:16.347Z,-0.10
2019-01-30T00:18:46.352Z,-0.20
2019-01-30T00:21:34.988Z,-0.20
2019-01-30T00:24:23.795Z,-0.10
2019-01-30T00:27:12.562Z,-0.10
2019-01-30T00:29:42.722Z,-0.20
2019-01-30T00:32:31.845Z,-0.20
2019-01-30T00:35:20.712Z,-0.20
2019-01-30T00:38:09.270Z,-0.20
2019-01-30T00:40:57.852Z,-0.10
2019-01-30T00:46:30.503Z,-0.10
2019-01-30T00:52:07.931Z,-0.10
2019-01-30T00:54:49.160Z,-0.10
2019-01-30T00:57:30.892Z,-0.10
2019-01-30T01:00:14.654Z,-0.10
2019-01-30T01:02:54.983Z,-0.10
2019-01-30T01:05:25.171Z,-0.10
2019-01-30T01:08:14.127Z,-0.10
2019-01-30T01:11:03.297Z,0.00
2019-01-30T01:13:52.400Z,0.00
2019-01-30T01:16:22.096Z,0.00
2019-01-30T01:19:10.869Z,-0.10
2019-01-30T01:21:59.655Z,-0.20
2019-01-30T01:24:29.742Z,-0.20
2019-01-30T01:27:18.252Z,-0.10
2019-01-30T01:33:05.166Z,-0.10
2019-01-30T01:41:54.288Z,0.00
2019-01-30T01:44:43.022Z,0.10
2019-01-30T01:47:24.776Z,0.10
2019-01-30T01:49:54.850Z,0.10
2019-01-30T01:52:44.003Z,0.20
2019-01-30T01:55:32.455Z,0.20
2019-01-30T01:58:20.933Z,0.20
2019-01-30T02:01:10.000Z,0.20
2019-01-30T02:03:59.157Z,0.30
2019-01-30T02:06:48.019Z,0.30
2019-01-30T02:09:36.873Z,0.30
2019-01-30T02:12:25.642Z,0.40
2019-01-30T02:15:15.795Z,0.30
2019-01-30T02:18:04.970Z,0.40
2019-01-30T02:20:53.729Z,0.30
2019-01-30T02:23:43.025Z,0.30
2019-01-30T02:26:31.799Z,0.40
2019-01-30T02:29:21.091Z,0.40
2019-01-30T02:32:10.401Z,0.50
2019-01-30T02:34:59.311Z,0.50
2019-01-30T02:37:29.316Z,0.50
2019-01-30T02:43:46.508Z,0.80
2019-01-30T02:49:26.804Z,0.60
2019-01-30T02:55:31.914Z,0.60
2019-01-30T02:58:08.910Z,0.80
2019-01-30T03:00:59.472Z,0.80
2019-01-30T03:03:48.707Z,0.80
2019-01-30T03:06:37.800Z,0.80
2019-01-30T03:09:26.437Z,0.80
2019-01-30T03:12:15.408Z,1.00
2019-01-30T03:15:04.159Z,1.00
2019-01-30T03:17:53.030Z,0.90
2019-01-30T03:20:41.607Z,0.90
2019-01-30T03:23:30.647Z,0.90
2019-01-30T03:26:20.007Z,0.90
2019-01-30T03:29:09.144Z,0.90
2019-01-30T03:31:50.253Z,0.80
2019-01-30T03:37:13.747Z,0.90
2019-01-30T03:39:55.728Z,1.00
2019-01-30T03:45:23.127Z,1.00
2019-01-30T03:48:04.383Z,1.10
2019-01-30T03:50:45.369Z,1.10
2019-01-30T03:53:26.740Z,1.20
2019-01-30T03:56:07.940Z,1.10
2019-01-30T03:58:49.703Z,1.20
2019-01-30T04:01:31.382Z,1.20
2019-01-30T04:04:12.922Z,1.10
2019-01-30T04:06:54.541Z,1.20
2019-01-30T04:09:35.948Z,1.30
2019-01-30T04:12:17.598Z,1.30
2019-01-30T04:14:59.083Z,1.30
2019-01-30T04:17:40.606Z,1.30
2019-01-30T04:20:21.305Z,1.40
2019-01-30T04:23:02.475Z,1.50
2019-01-30T04:25:44.035Z,1.40
2019-01-30T04:28:24.612Z,1.40
2019-01-30T04:31:05.763Z,1.50
2019-01-30T04:33:47.346Z,1.50
2019-01-30T04:36:28.865Z,1.50
2019-01-30T04:39:10.803Z,1.40
2019-01-30T04:41:52.455Z,1.40
2019-01-30T04:44:33.837Z,1.40
2019-01-30T04:47:15.169Z,1.40
2019-01-30T04:49:56.648Z,1.50
2019-01-30T04:52:27.032Z,1.50
2019-01-30T04:55:36.297Z,1.50
2019-01-30T04:58:25.471Z,1.60
2019-01-30T05:01:14.516Z,1.50
2019-01-30T05:04:03.564Z,1.50
2019-01-30T05:06:52.771Z,1.50
2019-01-30T05:09:41.857Z,1.40
2019-01-30T05:12:31.007Z,1.40
2019-01-30T05:15:20.048Z,1.40
2019-01-30T05:18:09.067Z,1.50
2019-01-30T05:20:57.740Z,1.60
2019-01-30T05:23:28.306Z,1.50
2019-01-30T05:26:17.352Z,1.60
2019-01-30T05:29:06.505Z,1.50
2019-01-30T05:32:01.279Z,1.50
2019-01-30T05:34:46.641Z,1.50
2019-01-30T05:37:24.024Z,1.50
2019-01-30T05:40:05.380Z,1.70
2019-01-30T05:42:47.040Z,1.60
2019-01-30T05:45:28.440Z,1.50
2019-01-30T05:48:09.843Z,1.60
2019-01-30T05:50:51.211Z,1.60
2019-01-30T05:53:32.483Z,1.70
2019-01-30T05:56:02.391Z,1.60
2019-01-30T05:58:50.935Z,1.70
2019-01-30T06:01:39.554Z,1.80
2019-01-30T06:04:28.415Z,1.70
2019-01-30T06:07:17.306Z,1.70
2019-01-30T06:10:06.196Z,1.70
2019-01-30T06:12:55.383Z,1.80
2019-01-30T06:15:43.835Z,1.80
2019-01-30T06:18:32.627Z,1.80
2019-01-30T06:21:21.823Z,1.70
2019-01-30T06:24:10.945Z,1.80
2019-01-30T06:26:41.330Z,1.70
2019-01-30T06:29:30.616Z,1.90
2019-01-30T06:32:21.869Z,1.90
2019-01-30T06:35:10.110Z,1.90
2019-01-30T06:37:58.984Z,1.90
2019-01-30T06:40:48.172Z,1.90
2019-01-30T06:43:36.654Z,1.80
2019-01-30T06:46:25.451Z,1.80
2019-01-30T06:49:14.259Z,1.70
2019-01-30T06:51:55.895Z,1.70
2019-01-30T06:54:37.115Z,1.90
2019-01-30T06:57:18.804Z,1.90
2019-01-30T06:59:59.803Z,1.80
2019-01-30T07:02:41.682Z,1.80
2019-01-30T07:05:23.163Z,1.80
2019-01-30T07:07:53.196Z,1.90
2019-01-30T07:10:41.966Z,1.80
2019-01-30T07:13:31.191Z,1.80
2019-01-30T07:16:19.964Z,1.90
2019-01-30T07:19:08.878Z,1.80
2019-01-30T07:21:58.080Z,1.80
2019-01-30T07:24:46.515Z,1.80
2019-01-30T07:27:35.524Z,1.90
2019-01-30T07:30:26.229Z,1.90
2019-01-30T07:33:14.522Z,2.00
2019-01-30T07:36:03.368Z,2.00
2019-01-30T07:38:52.348Z,2.20
2019-01-30T07:41:33.743Z,2.20
2019-01-30T07:44:15.536Z,2.20
2019-01-30T07:46:57.327Z,2.30
2019-01-30T07:49:38.404Z,2.40
2019-01-30T07:52:19.621Z,2.50
2019-01-30T07:55:01.217Z,2.40
2019-01-30T07:57:43.258Z,2.30
2019-01-30T08:03:16.472Z,2.50
2019-01-30T08:06:05.736Z,2.50
2019-01-30T08:12:03.777Z,2.50
2019-01-30T08:14:35.167Z,2.60
2019-01-30T08:20:26.348Z,2.70
2019-01-30T08:22:57.234Z,2.80
2019-01-30T08:25:46.009Z,2.90
2019-01-30T08:28:35.723Z,3.20
2019-01-30T08:31:06.128Z,3.30
2019-01-30T08:33:38.199Z,3.50
2019-01-30T08:36:27.332Z,3.50
2019-01-30T08:39:16.864Z,3.60
2019-01-30T08:42:05.872Z,3.60
2019-01-30T08:44:54.640Z,3.70
2019-01-30T08:47:44.286Z,3.70
2019-01-30T08:50:33.422Z,3.80
2019-01-30T08:53:15.509Z,4.00
2019-01-30T08:55:56.601Z,4.00
2019-01-30T08:58:38.183Z,4.10
2019-01-30T09:01:20.076Z,4.10
2019-01-30T09:04:01.939Z,4.20
2019-01-30T09:09:14.561Z,4.30
2019-01-30T09:12:04.051Z,4.30
2019-01-30T09:14:53.486Z,4.30
2019-01-30T09:17:42.067Z,4.30
2019-01-30T09:20:31.268Z,4.40
2019-01-30T09:23:02.338Z,4.50
2019-01-30T09:25:51.107Z,4.50
2019-01-30T09:28:39.304Z,4.60
2019-01-30T09:31:28.490Z,4.60
2019-01-30T09:33:58.168Z,4.60
2019-01-30T09:36:46.923Z,4.50
2019-01-30T09:39:35.614Z,4.50
2019-01-30T09:48:01.118Z,4.60
2019-01-30T09:50:50.063Z,4.50
2019-01-30T09:53:38.575Z,4.50
2019-01-30T09:56:19.355Z,4.50
2019-01-30T09:59:01.187Z,4.60
2019-01-30T10:01:43.125Z,4.70
2019-01-30T10:04:24.686Z,4.80
2019-01-30T10:07:05.867Z,4.90
2019-01-30T10:09:37.758Z,4.90
2019-01-30T10:12:26.530Z,4.90
2019-01-30T10:15:16.391Z,5.00
2019-01-30T10:18:05.363Z,5.00
2019-01-30T10:20:53.911Z,5.00
2019-01-30T10:23:42.754Z,4.90
2019-01-30T10:26:31.911Z,4.90
2019-01-30T10:29:21.074Z,4.90
2019-01-30T10:32:09.298Z,5.00
2019-01-30T10:34:58.208Z,4.90
2019-01-30T10:37:47.406Z,4.90
2019-01-30T10:40:28.507Z,5.00
2019-01-30T10:42:57.826Z,5.00
2019-01-30T10:45:47.039Z,5.10
2019-01-30T10:48:36.603Z,5.10
2019-01-30T10:51:26.991Z,5.10
2019-01-30T10:54:15.647Z,5.00
2019-01-30T10:57:04.806Z,5.00
2019-01-30T10:59:54.001Z,5.10
2019-01-30T11:02:24.253Z,5.10
2019-01-30T11:05:13.234Z,5.00
2019-01-30T11:08:02.386Z,5.10
2019-01-30T11:10:51.261Z,5.10
2019-01-30T11:13:40.156Z,5.20
2019-01-30T11:16:28.936Z,5.50
2019-01-30T11:19:17.712Z,5.70
2019-01-30T11:22:06.883Z,5.50
2019-01-30T11:24:55.784Z,5.70
2019-01-30T11:27:46.383Z,5.50
2019-01-30T11:30:35.203Z,5.30
2019-01-30T11:33:05.469Z,5.10
2019-01-30T11:35:54.606Z,5.10
2019-01-30T11:38:43.677Z,4.90
2019-01-30T11:41:32.305Z,4.60
2019-01-30T11:44:28.642Z,4.40
2019-01-30T11:47:17.487Z,4.10
2019-01-30T11:50:06.517Z,3.80
2019-01-30T11:52:55.748Z,4.00
2019-01-30T11:55:38.875Z,4.10
2019-01-30T11:58:21.251Z,4.10
2019-01-30T12:01:03.717Z,4.30
2019-01-30T12:03:45.435Z,4.40
2019-01-30T12:06:26.741Z,4.40
2019-01-30T12:09:08.009Z,4.30
2019-01-30T12:11:49.162Z,4.30
2019-01-30T12:14:30.275Z,4.40
2019-01-30T12:17:12.028Z,4.40
2019-01-30T12:19:53.157Z,4.30
2019-01-30T12:22:35.016Z,4.30
2019-01-30T12:25:16.122Z,4.40
2019-01-30T12:27:57.154Z,4.20
2019-01-30T12:30:38.688Z,3.90
2019-01-30T12:33:19.829Z,3.80
2019-01-30T12:36:01.208Z,3.90
2019-01-30T12:38:42.210Z,3.70
2019-01-30T12:41:23.519Z,3.60
2019-01-30T12:44:04.792Z,3.60
2019-01-30T12:46:45.474Z,3.50
2019-01-30T12:49:26.457Z,3.40
2019-01-30T12:52:07.239Z,3.50
2019-01-30T12:54:49.311Z,3.50
2019-01-30T12:57:30.789Z,3.60
2019-01-30T13:00:12.056Z,3.50
2019-01-30T13:02:42.228Z,3.50
2019-01-30T13:05:12.412Z,3.50
2019-01-30T13:08:00.976Z,3.50
2019-01-30T13:10:49.179Z,3.60
2019-01-30T13:13:37.880Z,3.60
2019-01-30T13:16:26.880Z,3.70
2019-01-30T13:19:15.703Z,3.60
2019-01-30T13:22:04.999Z,3.60
2019-01-30T13:24:35.118Z,3.50
2019-01-30T13:27:05.059Z,3.70
2019-01-30T13:29:53.924Z,3.50
2019-01-30T13:32:43.031Z,3.50
2019-01-30T13:35:32.091Z,3.60
2019-01-30T13:38:21.103Z,3.60
2019-01-30T13:41:09.903Z,3.70
2019-01-30T13:43:51.428Z,4.00
2019-01-30T13:46:32.706Z,4.10
2019-01-30T13:49:13.686Z,4.10
2019-01-30T13:51:54.976Z,4.00
2019-01-30T13:54:36.051Z,3.90
2019-01-30T13:57:16.994Z,3.80
2019-01-30T13:59:58.843Z,3.70
2019-01-30T14:02:40.156Z,3.40
2019-01-30T14:05:10.862Z,3.40
2019-01-30T14:07:40.664Z,3.50
2019-01-30T14:10:29.171Z,3.40
2019-01-30T14:13:17.892Z,3.30
2019-01-30T14:16:06.967Z,3.50
2019-01-30T14:18:37.304Z,3.40
2019-01-30T14:21:26.388Z,3.50
2019-01-30T14:24:14.897Z,3.40
2019-01-30T14:27:04.201Z,3.20
2019-01-30T14:29:58.309Z,3.10
2019-01-30T14:32:36.669Z,3.10
2019-01-30T14:35:18.078Z,3.10
2019-01-30T14:37:59.134Z,3.20
2019-01-30T14:40:40.178Z,3.20
2019-01-30T14:43:21.119Z,3.10
2019-01-30T14:46:02.422Z,3.20
2019-01-30T14:48:42.960Z,3.10
2019-01-30T14:51:23.954Z,3.10
2019-01-30T14:54:05.403Z,3.20
2019-01-30T14:56:46.424Z,3.10
2019-01-30T14:59:27.913Z,3.10
2019-01-30T15:02:09.337Z,3.00
2019-01-30T15:04:50.836Z,2.90
2019-01-30T15:07:32.091Z,2.70
2019-01-30T15:10:13.424Z,2.70
2019-01-30T15:12:55.074Z,2.70
2019-01-30T15:15:36.710Z,2.70
2019-01-30T15:18:17.995Z,2.70
2019-01-30T15:20:59.202Z,2.70
2019-01-30T15:23:50.257Z,2.80
2019-01-30T15:26:31.906Z,2.80
2019-01-30T15:29:14.091Z,2.80
2019-01-30T15:35:05.432Z,2.70
2019-01-30T15:40:30.726Z,2.60
2019-01-30T15:43:12.007Z,2.60
2019-01-30T15:45:53.225Z,2.50
2019-01-30T15:48:34.896Z,2.50
2019-01-30T15:51:15.846Z,2.40
2019-01-30T15:53:56.702Z,2.40
2019-01-30T15:56:38.508Z,2.30
2019-01-30T15:59:19.797Z,2.40
2019-01-30T16:02:01.628Z,2.30
2019-01-30T16:04:43.184Z,2.30
2019-01-30T16:07:24.036Z,2.30
2019-01-30T16:10:05.462Z,2.30
2019-01-30T16:12:46.716Z,2.30
2019-01-30T16:15:28.279Z,2.30
2019-01-30T16:18:09.751Z,2.30
2019-01-30T16:20:52.044Z,2.30
2019-01-30T16:23:33.053Z,2.20
2019-01-30T16:26:14.729Z,2.20
2019-01-30T16:28:55.808Z,2.20
2019-01-30T16:31:37.628Z,2.20
2019-01-30T16:34:18.715Z,2.20
2019-01-30T16:37:00.662Z,2.20
2019-01-30T16:39:42.131Z,2.20
2019-01-30T16:42:23.227Z,2.20
2019-01-30T16:45:04.304Z,2.30
2019-01-30T16:47:45.793Z,2.30
2019-01-30T16:50:27.482Z,2.30
2019-01-30T16:53:08.414Z,2.30
2019-01-30T16:55:49.880Z,2.40
2019-01-30T16:58:31.300Z,2.40
2019-01-30T17:01:12.394Z,2.40
2019-01-30T17:03:54.060Z,2.40
2019-01-30T17:06:34.936Z,2.40
2019-01-30T17:09:16.263Z,2.40
2019-01-30T17:11:46.428Z,2.40
2019-01-30T17:14:16.619Z,2.30
2019-01-30T17:17:05.507Z,2.30
2019-01-30T17:19:54.641Z,2.30
2019-01-30T17:22:43.211Z,2.30
2019-01-30T17:25:31.933Z,2.30
2019-01-30T17:28:20.880Z,2.20
2019-01-30T17:31:05.025Z,2.20
2019-01-30T17:33:46.647Z,2.20
2019-01-30T17:36:18.554Z,2.20
2019-01-30T17:39:08.756Z,2.10
2019-01-30T17:41:58.168Z,2.10
2019-01-30T17:44:47.345Z,2.20
2019-01-30T17:47:36.644Z,2.10
2019-01-30T17:50:26.330Z,2.20
2019-01-30T17:53:15.375Z,2.20
2019-01-30T17:55:45.186Z,2.20
2019-01-30T17:58:34.455Z,2.20
2019-01-30T18:01:25.323Z,2.20
2019-01-30T18:04:14.354Z,2.20
2019-01-30T18:07:03.301Z,2.20
2019-01-30T18:09:51.873Z,2.30
2019-01-30T18:12:22.283Z,2.30
2019-01-30T18:15:11.695Z,2.30
2019-01-30T18:18:01.128Z,2.40
2019-01-30T18:20:50.061Z,2.30
2019-01-30T18:23:39.647Z,2.20
2019-01-30T18:26:28.469Z,2.20
2019-01-30T18:29:10.751Z,2.20
2019-01-30T18:31:52.379Z,2.40
2019-01-30T18:34:33.831Z,2.40
2019-01-30T18:37:16.052Z,2.30
2019-01-30T18:39:57.062Z,2.30
2019-01-30T18:45:21.177Z,2.30
2019-01-30T18:48:03.119Z,2.40
2019-01-30T18:50:45.819Z,2.40
2019-01-30T18:53:27.394Z,2.40
2019-01-30T18:56:09.080Z,2.40
2019-01-30T18:58:50.158Z,2.50
2019-01-30T19:01:32.329Z,2.50
2019-01-30T19:04:13.877Z,2.60
2019-01-30T19:06:56.421Z,2.60
2019-01-30T19:09:32.991Z,2.60
2019-01-30T19:15:25.269Z,2.60
2019-01-30T19:18:15.166Z,2.60
2019-01-30T19:21:04.652Z,2.70
2019-01-30T19:23:36.590Z,2.70
2019-01-30T19:26:26.104Z,2.70
2019-01-30T19:29:15.385Z,2.70
2019-01-30T19:35:13.934Z,2.70
2019-01-30T19:37:44.140Z,2.70
2019-01-30T19:40:53.202Z,2.70
2019-01-30T19:43:42.323Z,2.70
2019-01-30T19:46:30.856Z,2.60
2019-01-30T19:49:20.435Z,2.70
2019-01-30T19:52:10.131Z,2.70
2019-01-30T19:54:59.340Z,2.60
2019-01-30T19:57:48.814Z,2.60
2019-01-30T20:00:56.697Z,2.60
2019-01-30T20:06:41.605Z,2.50
2019-01-30T20:09:31.227Z,2.60
2019-01-30T20:12:21.252Z,2.60
2019-01-30T20:15:12.079Z,2.50
2019-01-30T20:17:42.525Z,2.50
2019-01-30T20:20:31.743Z,2.40
2019-01-30T20:23:21.132Z,2.50
2019-01-30T20:26:10.523Z,2.40
2019-01-30T20:29:00.489Z,2.40
2019-01-30T20:31:31.179Z,2.40
2019-01-30T20:34:20.667Z,2.40
2019-01-30T20:37:09.743Z,2.30
2019-01-30T20:39:58.442Z,2.40
2019-01-30T20:42:47.716Z,2.30
2019-01-30T20:45:37.147Z,2.30
2019-01-30T20:48:25.753Z,2.30
2019-01-30T20:51:15.160Z,2.30
2019-01-30T20:54:03.747Z,2.20
2019-01-30T20:56:53.204Z,2.30
2019-01-30T20:59:23.629Z,2.30
2019-01-30T21:01:54.034Z,2.20
2019-01-30T21:04:43.378Z,2.20
2019-01-30T21:07:37.301Z,2.20
2019-01-30T21:10:27.051Z,2.30
2019-01-30T21:13:16.479Z,2.10
2019-01-30T21:16:05.765Z,2.10
2019-01-30T21:18:54.572Z,2.10
2019-01-30T21:21:44.307Z,2.10
2019-01-30T21:24:33.440Z,2.10
2019-01-30T21:27:22.681Z,2.20
2019-01-30T21:29:53.348Z,2.00
2019-01-30T21:32:42.076Z,2.00
2019-01-30T21:35:23.045Z,1.90
2019-01-30T21:38:05.137Z,1.80
2019-01-30T21:40:46.851Z,1.80
2019-01-30T21:43:28.386Z,1.80
2019-01-30T21:46:10.549Z,1.80
2019-01-30T21:48:55.263Z,1.90
2019-01-30T21:51:36.159Z,1.80
2019-01-30T21:54:06.467Z,1.90
2019-01-30T21:56:55.541Z,1.80
2019-01-30T21:59:44.760Z,1.80
2019-01-30T22:02:33.724Z,1.80
2019-01-30T22:05:22.748Z,1.70
2019-01-30T22:08:11.505Z,1.60
2019-01-30T22:11:00.952Z,1.60
2019-01-30T22:13:49.843Z,1.50
2019-01-30T22:16:39.038Z,1.40
2019-01-30T22:19:27.614Z,1.30
2019-01-30T22:22:16.504Z,1.30
2019-01-30T22:25:06.154Z,1.20
2019-01-30T22:27:55.567Z,1.10
2019-01-30T22:30:44.450Z,1.00
2019-01-30T22:33:33.191Z,0.90
2019-01-30T22:36:03.381Z,0.90
2019-01-30T22:38:52.281Z,0.80
2019-01-30T22:41:41.076Z,0.80
2019-01-30T22:44:11.214Z,0.70
2019-01-30T22:46:41.699Z,0.70
2019-01-30T22:49:12.047Z,0.60
2019-01-30T22:51:42.605Z,0.50
2019-01-30T22:54:31.300Z,0.50
2019-01-30T22:57:19.883Z,0.30
2019-01-30T23:04:01.930Z,0.20
2019-01-30T23:07:09.565Z,0.20
2019-01-30T23:10:17.454Z,0.10
2019-01-30T23:13:25.544Z,0.00
2019-01-30T23:16:33.238Z,-0.10
2019-01-30T23:19:24.753Z,-0.30
2019-01-30T23:22:32.678Z,-0.20
2019-01-30T23:25:34.719Z,-0.40
2019-01-30T23:28:45.838Z,-0.40
2019-01-30T23:31:39.442Z,-0.40
2019-01-30T23:34:47.083Z,-0.40
2019-01-30T23:37:28.598Z,-0.50
2019-01-30T23:40:10.471Z,-0.60
2019-01-30T23:42:52.154Z,-0.60
2019-01-30T23:45:33.210Z,-0.60
2019-01-30T23:48:14.092Z,-0.70
2019-01-30T23:50:56.093Z,-0.70
2019-01-30T23:53:40.121Z,-0.70
2019-01-30T23:56:20.593Z,-0.70
2019-01-30T23:59:01.618Z,-0.60
